Time;durP1;ratioP1;P1;durP2;ratioP2;P2;SDS_P1;SDS_P2;PMS_P1;PMS_P2;Temp;Humidity;BMP_temperature;BMP_pressure;BME280_temperature;BME280_humidity;BME280_pressure;Samples;Min_cycle;Max_cycle;Signal;HPM_P1;HPM_P2
2022/05/13 00:00:11;;;;;;;6.60;2.92;;;;;;;10.48;85.08;101706.97;5116393;28;20075;-79
2022/05/13 00:02:36;;;;;;;7.78;3.58;;;;;;;10.45;85.19;101702.00;5135140;28;20042;-79
2022/05/13 00:05:04;;;;;;;12.80;3.55;;;;;;;10.44;85.79;101703.84;5134543;28;20122;-79
2022/05/13 00:10:51;;;;;;;16.48;5.05;;;;;;;10.42;86.27;101697.03;5135360;28;20084;-79
2022/05/13 00:13:16;;;;;;;14.93;4.50;;;;;;;10.40;86.65;101699.88;5116569;28;20519;-79
2022/05/13 00:15:42;;;;;;;9.88;3.90;;;;;;;10.37;87.18;101694.09;5134401;28;20039;-78
2022/05/13 00:18:08;;;;;;;14.38;4.18;;;;;;;10.30;87.80;101703.91;5135392;28;20023;-79
2022/05/13 00:20:34;;;;;;;9.57;4.03;;;;;;;10.26;88.38;101694.63;5134780;28;20467;-79
2022/05/13 00:23:00;;;;;;;11.73;4.13;;;;;;;10.24;88.62;101692.97;5115884;28;20046;-78
2022/05/13 00:25:28;;;;;;;13.15;3.83;;;;;;;10.23;89.25;101693.97;5134540;28;20038;-78
2022/05/13 00:27:55;;;;;;;12.48;4.13;;;;;;;10.18;90.05;101695.53;5133646;28;20483;-78
2022/05/13 00:30:21;;;;;;;13.45;4.18;;;;;;;10.17;90.22;101692.03;5134504;28;20046;-78
2022/05/13 00:32:48;;;;;;;8.85;3.65;;;;;;;10.19;89.54;101684.66;5134329;28;20039;-77
2022/05/13 00:35:18;;;;;;;12.20;3.75;;;;;;;10.28;89.54;101696.06;5134221;28;20027;-78
2022/05/13 00:41:04;;;;;;;8.05;3.67;;;;;;;10.21;89.87;101688.00;5135137;28;20050;-77
2022/05/13 00:43:42;;;;;;;10.23;4.03;;;;;;;10.22;89.91;101688.81;5115216;28;20024;-76
2022/05/13 00:46:07;;;;;;;11.55;3.75;;;;;;;10.20;90.07;101675.66;5133696;28;20757;-78
2022/05/13 00:48:33;;;;;;;13.68;4.30;;;;;;;10.24;89.91;101686.78;5115754;28;20088;-78
2022/05/13 00:50:58;;;;;;;13.00;4.43;;;;;;;10.17;90.47;101688.53;5134595;28;20024;-79
2022/05/13 00:53:24;;;;;;;11.60;4.30;;;;;;;10.09;90.84;101686.81;5133321;28;20039;-79
2022/05/13 00:55:52;;;;;;;13.82;4.55;;;;;;;10.05;92.01;101685.53;5134137;28;20076;-78
2022/05/13 00:58:19;;;;;;;12.48;4.30;;;;;;;10.05;92.25;101688.19;5117871;28;20417;-79
2022/05/13 01:00:46;;;;;;;9.63;4.05;;;;;;;9.95;93.48;101687.69;5134601;28;20066;-78
2022/05/13 01:03:12;;;;;;;13.68;5.28;;;;;;;9.87;93.75;101688.66;5134566;28;20067;-78
2022/05/13 01:05:41;;;;;;;12.05;4.55;;;;;;;9.81;93.82;101678.69;5115031;28;20038;-77
2022/05/13 01:11:33;;;;;;;15.02;4.32;;;;;;;9.85;93.07;101687.19;5133800;28;20584;-77
2022/05/13 01:14:07;;;;;;;8.25;3.88;;;;;;;9.79;93.06;101685.25;5134632;28;20438;-77
2022/05/13 01:19:53;;;;;;;9.68;4.20;;;;;;;9.74;92.84;101690.31;5133950;28;20111;-77
2022/05/13 01:22:19;;;;;;;11.77;4.20;;;;;;;9.71;92.04;101678.16;5134115;28;20027;-78
2022/05/13 01:24:45;;;;;;;13.97;4.00;;;;;;;9.74;91.81;101685.81;5132985;28;20288;-77
2022/05/13 01:27:10;;;;;;;8.35;3.72;;;;;;;9.69;91.19;101676.72;5133612;28;20325;-80
2022/05/13 01:29:36;;;;;;;8.82;3.42;;;;;;;9.65;91.74;101672.75;5132817;28;20461;-77
2022/05/13 01:32:01;;;;;;;9.95;3.83;;;;;;;9.62;90.93;101673.97;5133616;28;20031;-79
2022/05/13 01:37:49;;;;;;;9.82;3.33;;;;;;;9.64;90.62;101685.28;5133796;27;20096;-79
2022/05/13 01:40:15;;;;;;;8.52;3.60;;;;;;;9.60;90.72;101690.16;5133572;28;20051;-79
2022/05/13 01:42:41;;;;;;;9.80;3.55;;;;;;;9.61;90.78;101688.31;5132550;28;20494;-79
2022/05/13 01:45:08;;;;;;;7.22;3.55;;;;;;;9.62;91.60;101685.47;5114822;28;20027;-81
2022/05/13 01:47:34;;;;;;;10.45;3.40;;;;;;;9.64;90.76;101685.28;5113950;28;20376;-78
2022/05/13 01:50:00;;;;;;;5.70;3.17;;;;;;;9.75;89.77;101686.63;5114639;28;20041;-80
2022/05/13 01:52:25;;;;;;;7.05;3.47;;;;;;;9.77;89.05;101679.25;5133014;28;20041;-79
2022/05/13 01:58:14;;;;;;;9.55;3.22;;;;;;;9.93;88.64;101687.88;5133189;28;20042;-81
2022/05/13 02:00:41;;;;;;;9.65;2.92;;;;;;;9.87;88.71;101685.97;5114012;28;20467;-82
2022/05/13 02:05:50;;;;;;;6.95;3.00;;;;;;;9.73;89.92;101684.16;5132469;28;20588;-81
2022/05/13 02:08:16;;;;;;;10.75;3.70;;;;;;;9.75;89.46;101690.13;5132932;28;20062;-80
2022/05/13 02:10:42;;;;;;;8.05;3.40;;;;;;;9.72;89.73;101690.50;5132928;28;20034;-78
2022/05/13 02:13:07;;;;;;;11.18;3.80;;;;;;;9.73;89.57;101689.50;5114102;28;20051;-77
2022/05/13 02:15:32;;;;;;;8.45;3.38;;;;;;;9.75;89.22;101684.78;5114313;28;20027;-77
2022/05/13 02:17:58;;;;;;;11.13;3.10;;;;;;;9.67;89.63;101681.41;5113867;28;20550;-78
2022/05/13 02:20:23;;;;;;;9.03;3.30;;;;;;;9.63;90.11;101679.13;5132933;28;20500;-76
2022/05/13 02:22:48;;;;;;;9.30;3.57;;;;;;;9.63;89.91;101675.63;5132776;28;20280;-75
2022/05/13 02:25:13;;;;;;;13.77;3.50;;;;;;;9.60;90.72;101678.66;5113906;28;20281;-76
2022/05/13 02:27:39;;;;;;;8.07;3.13;;;;;;;9.53;91.02;101677.72;5114163;28;20033;-81
2022/05/13 02:30:05;;;;;;;10.00;3.35;;;;;;;9.54;91.37;101680.25;5131737;28;20047;-78
2022/05/13 02:32:31;;;;;;;8.20;3.47;;;;;;;9.51;92.41;101687.78;5132740;28;20066;-78
2022/05/13 02:38:18;;;;;;;10.55;3.45;;;;;;;9.62;92.06;101688.13;5132470;28;20406;-79
2022/05/13 02:43:27;;;;;;;11.63;3.40;;;;;;;9.68;92.07;101681.22;5131468;28;20115;-78
2022/05/13 02:45:53;;;;;;;11.50;3.50;;;;;;;9.63;92.85;101679.13;5113873;28;20044;-79
2022/05/13 02:48:18;;;;;;;11.20;3.90;;;;;;;9.64;92.97;101674.59;5131760;27;20035;-79
2022/05/13 02:54:07;;;;;;;10.55;3.20;;;;;;;9.63;93.28;101676.44;5128802;27;20370;-78
2022/05/13 02:56:33;;;;;;;13.15;3.88;;;;;;;9.61;92.89;101675.81;5131369;28;20399;-78
2022/05/13 02:58:58;;;;;;;9.65;3.70;;;;;;;9.61;92.64;101683.81;5132231;28;20029;-77
2022/05/13 03:01:24;;;;;;;11.27;3.70;;;;;;;9.62;93.06;101682.81;5131393;28;20047;-77
2022/05/13 03:03:50;;;;;;;14.45;4.47;;;;;;;9.60;93.45;101679.50;5132103;28;20084;-77
2022/05/13 03:09:36;;;;;;;6.97;3.15;;;;;;;9.70;93.99;101686.38;5135731;28;20422;-78
2022/05/13 03:12:02;;;;;;;15.02;3.53;;;;;;;9.65;94.04;101680.78;5134892;28;20121;-77
2022/05/13 03:14:28;;;;;;;14.30;3.97;;;;;;;9.70;93.54;101678.34;5136062;28;20027;-76
2022/05/13 03:16:53;;;;;;;15.55;4.03;;;;;;;9.77;93.33;101673.91;5135756;28;20030;-78
2022/05/13 03:19:18;;;;;;;8.87;3.20;;;;;;;9.80;93.46;101674.38;5135024;28;20066;-78
2022/05/13 03:21:44;;;;;;;16.73;4.63;;;;;;;9.79;94.17;101666.53;5135777;28;20299;-76
2022/05/13 03:24:09;;;;;;;13.70;4.20;;;;;;;9.81;94.57;101659.16;5134714;28;20809;-77
2022/05/13 03:26:34;;;;;;;10.47;3.80;;;;;;;9.84;95.10;101672.16;5117099;28;20588;-77
2022/05/13 03:29:00;;;;;;;14.70;4.53;;;;;;;9.83;95.03;101665.16;5135487;28;20283;-77
2022/05/13 03:34:47;;;;;;;14.60;5.18;;;;;;;9.66;97.10;101658.38;5135730;27;20115;-76
2022/05/13 03:37:12;;;;;;;12.83;4.47;;;;;;;9.58;98.17;101662.00;5134390;28;20055;-77
2022/05/13 03:39:37;;;;;;;15.65;5.63;;;;;;;9.58;98.43;101670.84;5135480;28;20284;-77
2022/05/13 03:42:03;;;;;;;13.65;4.60;;;;;;;9.58;98.79;101668.16;5134461;28;20149;-76
2022/05/13 03:44:30;;;;;;;10.80;4.55;;;;;;;9.53;99.89;101667.06;5135307;28;20475;-77
2022/05/13 03:50:17;;;;;;;20.00;4.93;;;;;;;9.50;100.00;101665.59;5135619;28;20568;-78
2022/05/13 03:52:43;;;;;;;12.73;4.75;;;;;;;9.45;100.00;101670.66;5135480;28;20027;-75
2022/05/13 03:55:10;;;;;;;19.80;5.57;;;;;;;9.44;100.00;101666.34;5134472;28;20498;-79
2022/05/13 03:57:35;;;;;;;16.08;4.85;;;;;;;9.41;100.00;101663.22;5134967;28;20494;-79
2022/05/13 04:00:03;;;;;;;17.83;4.63;;;;;;;9.37;100.00;101669.94;5134204;28;20027;-79
2022/05/13 04:02:29;;;;;;;17.52;5.55;;;;;;;9.40;100.00;101673.06;5134639;28;20376;-78
2022/05/13 04:10:22;;;;;;;19.63;5.90;;;;;;;9.39;100.00;101665.25;5134757;28;20070;-77
2022/05/13 04:18:15;;;;;;;15.25;5.32;;;;;;;9.44;100.00;101674.34;5134114;27;20037;-77
2022/05/13 04:20:40;;;;;;;19.97;5.60;;;;;;;9.42;100.00;101673.72;5134366;28;20122;-77
2022/05/13 04:23:06;;;;;;;18.10;5.27;;;;;;;9.44;100.00;101673.53;5134446;28;20357;-78
2022/05/13 04:25:32;;;;;;;12.75;5.13;;;;;;;9.42;100.00;101667.53;5133590;28;20295;-78
2022/05/13 04:27:57;;;;;;;18.73;5.43;;;;;;;9.50;100.00;101662.91;5134570;28;20049;-77
2022/05/13 04:30:23;;;;;;;18.48;6.20;;;;;;;9.50;100.00;101673.59;5133660;28;20137;-79
2022/05/13 04:36:10;;;;;;;16.80;5.85;;;;;;;9.61;100.00;101683.00;5133802;27;20411;-80
2022/05/13 04:44:41;;;;;;;19.45;6.30;;;;;;;10.10;100.00;101695.66;5134136;28;20038;-76
2022/05/13 04:50:28;;;;;;;19.13;6.00;;;;;;;10.60;98.38;101708.09;5134377;28;20558;-77
2022/05/13 04:52:53;;;;;;;20.23;6.38;;;;;;;10.89;97.24;101703.59;5134127;28;20114;-74
2022/05/13 04:55:19;;;;;;;20.55;5.45;;;;;;;11.10;94.65;101699.00;5133239;28;20103;-75
2022/05/13 05:01:07;;;;;;;16.13;5.13;;;;;;;10.93;94.57;101712.88;5134167;28;20772;-79
2022/05/13 05:03:35;;;;;;;23.50;6.70;;;;;;;10.83;95.28;101715.91;5115394;28;20031;-78
2022/05/13 05:06:00;;;;;;;17.63;5.78;;;;;;;10.78;96.36;101718.34;5133377;28;20042;-80
2022/05/13 05:11:47;;;;;;;25.42;6.07;;;;;;;10.85;95.55;101728.06;5134265;27;20070;-78
2022/05/13 05:14:12;;;;;;;14.52;5.47;;;;;;;10.81;95.94;101726.78;5132950;28;20479;-79
2022/05/13 05:16:38;;;;;;;13.40;5.63;;;;;;;10.88;95.90;101726.00;5133824;28;20035;-77
2022/05/13 05:19:04;;;;;;;19.30;5.23;;;;;;;10.99;94.86;101726.31;5132694;28;20511;-79
2022/05/13 05:21:29;;;;;;;13.32;5.28;;;;;;;11.09;94.22;101734.81;5133529;28;20257;-76
2022/05/13 05:23:55;;;;;;;16.52;5.75;;;;;;;11.06;94.68;101739.75;5133650;28;20046;-78
2022/05/13 05:26:21;;;;;;;23.10;6.90;;;;;;;10.77;96.41;101725.53;5132789;28;20384;-78
2022/05/13 05:32:08;;;;;;;22.23;5.82;;;;;;;11.10;95.38;101738.34;5133706;28;20134;-77
2022/05/13 05:37:56;;;;;;;24.83;6.40;;;;;;;11.25;94.38;101752.41;5133986;28;20105;-76
2022/05/13 05:47:05;;;;;;;15.57;6.15;;;;;;;11.36;94.08;101764.47;5134309;27;20114;-77
2022/05/13 05:52:52;;;;;;;18.33;6.53;;;;;;;11.40;94.82;101763.88;5133548;28;20091;-75
2022/05/13 05:58:38;;;;;;;14.27;6.97;;;;;;;11.65;93.30;101774.94;5133112;28;20276;-75
2022/05/13 06:04:25;;;;;;;20.42;6.28;;;;;;;11.88;92.38;101769.31;5133216;28;20578;-77
2022/05/13 06:10:14;;;;;;;21.52;6.55;;;;;;;12.30;90.24;101786.16;5132988;28;20372;-76
2022/05/13 06:12:40;;;;;;;21.33;6.95;;;;;;;12.39;89.85;101784.94;5132047;28;20047;-76
2022/05/13 06:15:06;;;;;;;16.73;6.55;;;;;;;12.54;89.03;101793.63;5132844;28;20019;-81
2022/05/13 06:17:32;;;;;;;18.85;7.78;;;;;;;12.61;88.86;101799.84;5132087;28;20479;-73
2022/05/13 06:19:57;;;;;;;18.75;7.00;;;;;;;12.61;88.75;101794.47;5132539;28;20114;-75
2022/05/13 06:25:44;;;;;;;20.42;7.03;;;;;;;12.70;89.40;101803.97;5133623;28;20371;-79
2022/05/13 06:31:31;;;;;;;23.50;8.35;;;;;;;12.94;88.68;101809.78;5133453;28;20767;-79
2022/05/13 06:33:56;;;;;;;21.63;6.97;;;;;;;13.01;88.18;101818.69;5114463;28;20030;-77
2022/05/13 06:36:22;;;;;;;18.95;6.97;;;;;;;13.19;87.23;101815.41;5113867;28;20050;-76
2022/05/13 06:38:47;;;;;;;21.95;8.25;;;;;;;13.31;86.92;101819.97;5132855;28;20023;-77
2022/05/13 06:44:34;;;;;;;21.90;7.88;;;;;;;13.42;86.13;101814.97;5133064;28;20046;-75
2022/05/13 06:50:21;;;;;;;26.20;8.98;;;;;;;15.10;81.05;101819.19;5132840;28;20100;-79
2022/05/13 06:56:08;;;;;;;16.83;7.40;;;;;;;18.03;65.84;101821.13;5133259;28;20038;-77
2022/05/13 07:01:55;;;;;;;20.13;7.47;;;;;;;17.30;66.28;101807.03;5132736;28;20122;-83
2022/05/13 07:07:42;;;;;;;25.63;7.55;;;;;;;15.75;72.28;101825.84;5132231;28;20287;-79
2022/05/13 07:13:29;;;;;;;16.73;7.28;;;;;;;16.13;73.22;101822.06;5132731;28;20054;-80
2022/05/13 07:15:54;;;;;;;19.05;8.10;;;;;;;16.68;70.03;101830.91;5131339;28;20023;-79
2022/05/13 07:21:41;;;;;;;15.73;7.68;;;;;;;17.83;64.70;101824.19;5131776;28;20803;-77
2022/05/13 07:24:07;;;;;;;24.90;8.97;;;;;;;18.29;63.08;101830.56;5113563;28;20027;-77
2022/05/13 07:26:32;;;;;;;22.73;9.52;;;;;;;18.34;62.30;101830.66;5131821;28;20355;-78
2022/05/13 07:28:58;;;;;;;17.65;9.20;;;;;;;18.54;61.50;101818.34;5130985;28;20043;-75
2022/05/13 07:31:23;;;;;;;19.45;8.82;;;;;;;18.67;59.69;101821.81;5131995;28;20031;-77
2022/05/13 07:33:49;;;;;;;14.50;8.15;;;;;;;19.13;59.10;101826.97;5131080;28;20047;-78
2022/05/13 07:36:14;;;;;;;20.10;8.67;;;;;;;19.97;56.14;101834.16;5113426;28;20046;-78
2022/05/13 07:41:16;;;;;;;22.27;7.97;;;;;;;19.95;55.16;101831.72;5113365;28;20827;-77
2022/05/13 07:41:25;;;;;;;17.05;7.72;;;;;;;19.20;57.03;101826.78;5130741;28;20039;-77
2022/05/13 07:43:50;;;;;;;19.90;8.32;;;;;;;18.48;59.31;101829.28;5131678;28;20027;-77
2022/05/13 07:46:16;;;;;;;15.63;7.72;;;;;;;18.11;61.63;101842.38;5130739;28;20039;-77
2022/05/13 07:48:41;;;;;;;12.47;7.03;;;;;;;18.85;60.53;101835.16;5131511;27;20027;-76
2022/05/13 07:51:08;;;;;;;17.85;7.22;;;;;;;20.07;56.02;101837.81;5131003;28;20613;-82
2022/05/13 07:53:33;;;;;;;17.08;6.95;;;;;;;20.05;53.94;101850.00;5114127;28;20047;-80
2022/05/13 07:55:59;;;;;;;19.15;8.80;;;;;;;19.00;56.23;101845.44;5135023;28;20066;-76
2022/05/13 07:58:24;;;;;;;16.52;6.30;;;;;;;17.82;59.89;101841.50;5134152;28;20077;-77
2022/05/13 08:00:50;;;;;;;16.53;6.73;;;;;;;17.06;62.70;101845.09;5135058;28;20487;-80
2022/05/13 08:03:17;;;;;;;18.67;7.07;;;;;;;16.55;64.15;101849.16;5133988;28;20293;-79
2022/05/13 08:05:50;;;;;;;20.58;6.95;;;;;;;16.28;65.52;101852.22;5134864;28;20364;-78
2022/05/13 08:08:17;;;;;;;;;;;;;;;16.35;65.44;101847.53;5135319;28;20024;-76
2022/05/13 08:10:52;;;;;;;15.68;6.60;;;;;;;15.89;68.30;101858.03;5134062;28;19915;-84
2022/05/13 08:13:18;;;;;;;17.42;7.93;;;;;;;15.83;68.56;101856.25;5134697;28;20495;-77
2022/05/13 08:15:43;;;;;;;19.05;7.88;;;;;;;15.97;69.07;101860.47;5115916;28;20043;-76
2022/05/13 08:18:08;;;;;;;17.20;8.40;;;;;;;16.15;68.08;101867.72;5134624;28;20117;-76
2022/05/13 08:20:35;;;;;;;15.27;7.28;;;;;;;16.31;66.27;101859.84;5115439;28;20035;-78
2022/05/13 08:23:00;;;;;;;13.10;6.68;;;;;;;16.56;65.76;101865.13;5134544;28;20058;-77
2022/05/13 08:25:26;;;;;;;15.13;6.35;;;;;;;16.63;64.66;101870.44;5134567;28;20400;-77
2022/05/13 08:27:52;;;;;;;9.98;6.40;;;;;;;16.47;65.24;101857.56;5133727;28;20050;-76
2022/05/13 08:30:18;;;;;;;13.80;5.97;;;;;;;16.81;63.68;101866.91;5116057;28;20034;-77
2022/05/13 08:32:44;;;;;;;16.73;7.13;;;;;;;17.35;63.76;101868.53;5133619;28;20087;-75
2022/05/13 08:35:11;;;;;;;15.75;6.40;;;;;;;18.06;61.02;101872.88;5134426;28;20023;-76
2022/05/13 08:37:48;;;;;;;20.05;7.00;;;;;;;18.68;59.06;101864.94;5115359;28;20031;-76
2022/05/13 08:40:35;;;;;;;19.73;6.68;;;;;;;18.04;58.36;101857.94;5134763;28;20039;-78
2022/05/13 08:43:06;;;;;;;16.33;6.30;;;;;;;17.75;60.61;101868.69;5134251;28;20031;-77
2022/05/13 08:45:31;;;;;;;17.83;5.88;;;;;;;17.76;59.71;101872.22;5133535;28;20159;-78
2022/05/13 08:47:58;;;;;;;10.95;5.60;;;;;;;17.66;60.03;101875.50;5134067;27;20071;-77
2022/05/13 08:50:41;;;;;;;18.10;5.55;;;;;;;17.38;60.58;101878.88;5133337;28;20041;-78
2022/05/13 08:53:19;;;;;;;13.20;5.18;;;;;;;17.06;62.05;101872.97;5134281;28;20050;-77
2022/05/13 08:55:48;;;;;;;15.55;5.68;;;;;;;17.07;61.81;101877.31;5133483;28;20042;-78
2022/05/13 08:58:32;;;;;;;11.75;5.00;;;;;;;17.42;60.72;101880.06;5134083;28;20026;-76
2022/05/13 09:00:59;;;;;;;15.68;5.50;;;;;;;17.59;59.28;101883.69;5133421;28;20126;-80
2022/05/13 09:03:38;;;;;;;11.32;4.82;;;;;;;17.48;59.01;101878.31;5133622;28;20034;-74
2022/05/13 09:06:14;;;;;;;11.35;4.78;;;;;;;17.53;59.19;101881.94;5133032;27;20027;-75
2022/05/13 09:12:13;;;;;;;17.10;5.35;;;;;;;18.41;55.33;101877.38;5134147;27;20054;-77
2022/05/13 09:15:03;;;;;;;9.52;4.05;;;;;;;18.05;56.32;101879.34;5132982;28;20095;-76
2022/05/13 09:17:33;;;;;;;8.73;4.07;;;;;;;18.35;55.89;101875.63;5133774;28;20475;-76
2022/05/13 09:20:04;;;;;;;11.52;4.50;;;;;;;19.45;53.85;101876.03;5132811;28;20039;-78
2022/05/13 09:22:41;;;;;;;8.57;4.10;;;;;;;20.21;50.87;101889.03;5133576;28;20031;-79
2022/05/13 09:25:13;;;;;;;14.20;3.70;;;;;;;21.18;47.22;101877.31;5132993;28;20521;-76
2022/05/13 09:27:50;;;;;;;12.63;3.95;;;;;;;22.19;45.33;101874.47;5115215;28;20019;-76
2022/05/13 09:30:21;;;;;;;9.57;3.60;;;;;;;22.75;42.98;101880.06;5132880;28;20027;-77
2022/05/13 09:32:46;;;;;;;11.77;3.60;;;;;;;21.71;41.87;101879.09;5133375;28;20516;-79
2022/05/13 09:35:29;;;;;;;12.80;3.33;;;;;;;20.91;45.00;101885.50;5133406;28;20104;-77
2022/05/13 09:37:55;;;;;;;;;;;;;;;21.16;44.84;101890.38;5115176;28;20035;-79
2022/05/13 09:40:25;;;;;;;12.40;3.60;;;;;;;21.00;44.27;101884.78;5133415;28;19916;-77
2022/05/13 09:42:55;;;;;;;11.52;3.42;;;;;;;20.49;46.66;101893.47;5114397;28;20039;-78
2022/05/13 09:45:30;;;;;;;9.77;3.20;;;;;;;20.45;46.83;101898.59;5133416;28;20104;-78
2022/05/13 09:48:04;;;;;;;21.77;4.25;;;;;;;20.10;47.39;101897.06;5113910;28;20047;-76
2022/05/13 09:50:45;;;;;;;13.07;3.22;;;;;;;19.62;47.30;101891.47;5133541;28;20081;-80
2022/05/13 09:53:23;;;;;;;13.27;3.38;;;;;;;19.40;48.66;101894.94;5114656;28;20387;-77
2022/05/13 09:55:50;;;;;;;7.75;3.40;;;;;;;19.21;48.41;101896.22;5127292;28;20502;-79
2022/05/13 09:58:24;;;;;;;13.00;3.80;;;;;;;19.16;48.46;101896.16;5133059;28;20023;-79
2022/05/13 10:00:57;;;;;;;10.13;3.72;;;;;;;19.41;49.50;101891.16;5132414;28;20111;-77
2022/05/13 10:03:36;;;;;;;15.70;4.07;;;;;;;19.76;47.88;101900.94;5132987;28;20491;-76
2022/05/13 10:06:15;;;;;;;11.95;3.75;;;;;;;20.23;47.70;101898.56;5132213;28;20042;-77
2022/05/13 10:14:35;;;;;;;7.65;2.90;;;;;;;20.16;45.74;101895.22;5133348;28;20083;-78
2022/05/13 10:17:11;;;;;;;17.20;3.55;;;;;;;19.86;47.28;101903.78;5132446;27;20047;-77
2022/05/13 10:19:44;;;;;;;11.75;2.55;;;;;;;19.73;44.42;101890.56;5132923;28;20042;-75
2022/05/13 10:22:28;;;;;;;10.57;3.13;;;;;;;19.65;45.53;101893.69;5132659;28;20102;-76
2022/05/13 10:25:03;;;;;;;5.75;2.97;;;;;;;19.53;46.75;101895.66;5107321;28;20039;-76
2022/05/13 10:27:36;;;;;;;7.60;3.03;;;;;;;19.68;47.07;101902.19;5132743;28;20031;-81
2022/05/13 10:30:26;;;;;;;8.15;3.25;;;;;;;20.06;45.49;101892.38;5131933;28;20062;-77
2022/05/13 10:33:00;;;;;;;10.07;2.83;;;;;;;19.69;45.16;101894.88;5132670;28;20043;-77
2022/05/13 10:35:31;;;;;;;10.95;3.40;;;;;;;19.72;46.02;101905.22;5131771;28;20054;-77
2022/05/13 10:38:14;;;;;;;10.50;3.28;;;;;;;19.79;46.16;101876.81;5132678;28;20118;-76
2022/05/13 10:40:42;;;;;;;4.88;2.92;;;;;;;19.68;46.33;101896.75;5131734;28;20578;-84
2022/05/13 10:43:32;;;;;;;8.60;2.70;;;;;;;19.44;46.77;101887.94;5132396;28;20106;-79
2022/05/13 10:46:10;;;;;;;4.43;1.88;;;;;;;19.14;44.94;101896.41;5131804;28;20475;-78
2022/05/13 10:48:36;;;;;;;5.25;1.88;;;;;;;19.20;43.03;101894.59;5113777;28;20046;-78
2022/05/13 10:51:39;;;;;;;4.07;2.20;;;;;;;19.53;43.85;101895.66;5132368;28;20055;-78
2022/05/13 10:54:25;;;;;;;8.55;2.33;;;;;;;19.97;43.17;101889.28;5086689;28;20458;-76
2022/05/13 10:57:16;;;;;;;6.10;2.70;;;;;;;20.11;43.00;101879.69;5132284;28;20106;-75
2022/05/13 10:59:54;;;;;;;6.95;3.03;;;;;;;19.43;43.79;101880.88;5131536;28;20091;-76
2022/05/13 11:09:21;;;;;;;5.57;2.65;;;;;;;19.57;45.32;101903.06;5132620;28;20038;-77
2022/05/13 11:11:46;;;;;;;10.85;2.80;;;;;;;19.12;47.02;101889.59;5132499;28;20028;-79
2022/05/13 11:17:39;;;;;;;11.98;2.80;;;;;;;19.10;47.53;101902.56;5132106;28;20296;-78
2022/05/13 11:26:47;;;;;;;6.93;2.45;;;;;;;19.64;45.40;101908.31;5131645;28;20038;-77
2022/05/13 11:32:42;;;;;;;7.07;2.20;;;;;;;19.09;47.75;101898.22;5135646;28;20046;-78
2022/05/13 11:35:31;;;;;;;9.60;3.15;;;;;;;20.11;46.30;101908.75;5117151;28;20038;-79
2022/05/13 11:38:04;;;;;;;10.50;3.00;;;;;;;20.57;44.96;101907.47;5135281;28;20035;-76
2022/05/13 11:40:37;;;;;;;8.05;3.47;;;;;;;20.72;43.76;101895.91;5134396;28;20047;-78
2022/05/13 11:43:20;;;;;;;;;;;;;;;20.82;43.79;101887.06;5135883;28;20050;-77
2022/05/13 11:46:01;;;;;;;;;;;;;;;20.89;43.29;101898.53;5135507;28;19911;-84
2022/05/13 11:48:31;;;;;;;4.22;2.63;;;;;;;20.34;43.61;101902.25;5135950;27;19915;-78
2022/05/13 11:54:23;;;;;;;8.43;2.80;;;;;;;19.96;44.41;101906.66;5135721;27;20482;-78
2022/05/13 11:57:09;;;;;;;9.90;2.50;;;;;;;19.81;45.23;101909.16;5134486;28;20050;-78
2022/05/13 11:59:44;;;;;;;10.50;3.17;;;;;;;19.86;45.49;101911.94;5135005;28;20382;-76
2022/05/13 12:02:09;;;;;;;10.85;2.88;;;;;;;20.32;44.32;101909.84;5115829;28;20039;-76
2022/05/13 12:04:38;;;;;;;8.20;2.70;;;;;;;20.23;44.28;101906.72;5134952;28;20035;-75
2022/05/13 12:10:34;;;;;;;8.55;3.00;;;;;;;20.57;44.05;101898.47;5135220;28;20135;-79
2022/05/13 12:13:00;;;;;;;9.57;3.10;;;;;;;20.79;43.48;101898.41;5116422;28;20039;-77
2022/05/13 12:15:39;;;;;;;6.80;2.95;;;;;;;20.70;42.52;101900.78;5133969;28;20066;-78
2022/05/13 12:18:18;;;;;;;10.60;3.50;;;;;;;20.65;42.79;101898.03;5134681;28;20027;-79
2022/05/13 12:21:07;;;;;;;6.53;2.63;;;;;;;20.15;43.74;101893.59;5115841;28;20364;-78
2022/05/13 12:23:33;;;;;;;6.78;2.65;;;;;;;20.05;43.39;101897.00;5134626;28;20180;-79
2022/05/13 12:26:02;;;;;;;9.90;3.60;;;;;;;20.01;43.01;101898.56;5133711;28;20538;-77
2022/05/13 12:28:40;;;;;;;9.15;3.10;;;;;;;20.32;44.23;101902.50;5134629;28;20027;-77
2022/05/13 12:31:19;;;;;;;9.80;3.03;;;;;;;20.94;42.59;101893.97;5133947;28;20050;-79
2022/05/13 12:39:44;;;;;;;10.73;3.45;;;;;;;20.75;42.03;101905.44;5133656;27;20100;-78
2022/05/13 12:42:11;;;;;;;12.55;4.20;;;;;;;20.26;42.96;101897.28;5133987;28;20030;-76
2022/05/13 12:45:03;;;;;;;9.15;4.07;;;;;;;19.96;45.06;101898.50;5115421;28;20510;-78
2022/05/13 12:47:31;;;;;;;7.25;3.65;;;;;;;20.01;45.05;101893.16;5130508;27;20474;-78
2022/05/13 12:49:59;;;;;;;9.52;3.80;;;;;;;20.55;44.95;101896.03;5133424;28;20108;-78
2022/05/13 12:52:26;;;;;;;8.27;4.53;;;;;;;21.94;41.28;101895.00;5134139;28;20113;-78
2022/05/13 12:54:57;;;;;;;13.43;7.28;;;;;;;21.84;40.73;101900.41;5133230;28;20560;-77
2022/05/13 12:57:50;;;;;;;14.77;8.63;;;;;;;21.37;41.85;101899.53;5115662;28;20027;-78
2022/05/13 13:00:20;;;;;;;10.25;7.57;;;;;;;21.69;41.16;101881.28;5132956;28;20062;-78
2022/05/13 13:02:51;;;;;;;8.73;6.35;;;;;;;21.89;41.26;101900.44;5133885;28;20047;-82
2022/05/13 13:05:24;;;;;;;11.85;7.40;;;;;;;21.70;41.63;101885.63;5134090;28;20023;-80
2022/05/13 13:07:53;;;;;;;11.55;6.47;;;;;;;22.30;40.60;101891.69;5133088;28;20378;-78
2022/05/13 13:10:21;;;;;;;12.20;6.25;;;;;;;22.32;39.44;101893.06;5133865;28;20128;-80
2022/05/13 13:13:09;;;;;;;9.70;6.32;;;;;;;21.75;41.82;101872.03;5132972;28;20271;-76
2022/05/13 13:15:38;;;;;;;10.13;7.53;;;;;;;21.57;42.05;101883.34;5115375;28;20023;-78
2022/05/13 13:18:10;;;;;;;16.20;8.50;;;;;;;22.03;40.82;101875.47;5132947;28;20039;-78
2022/05/13 13:20:48;;;;;;;15.57;11.93;;;;;;;21.73;40.69;101867.94;5133723;28;20031;-76
2022/05/13 13:23:15;;;;;;;14.07;10.00;;;;;;;21.86;40.18;101876.47;5132376;28;20059;-75
2022/05/13 13:29:05;;;;;;;16.75;11.48;;;;;;;21.73;40.66;101863.31;5134280;28;20095;-81
2022/05/13 13:31:36;;;;;;;15.93;11.32;;;;;;;21.60;41.24;101863.78;5133027;28;20035;-78
2022/05/13 13:37:28;;;;;;;13.88;10.30;;;;;;;21.65;43.42;101880.13;5133925;28;20088;-75
2022/05/13 13:39:55;;;;;;;13.10;11.43;;;;;;;21.27;42.92;101878.50;5134040;28;20503;-82
2022/05/13 13:42:21;;;;;;;16.20;12.82;;;;;;;20.92;43.11;101865.41;5114840;28;20046;-77
2022/05/13 13:48:12;;;;;;;17.98;13.35;;;;;;;20.80;43.85;101859.28;5133515;27;20107;-80
2022/05/13 13:50:47;;;;;;;21.98;14.32;;;;;;;20.28;44.39;101870.66;5133301;27;20029;-78
2022/05/13 13:53:17;;;;;;;16.92;13.45;;;;;;;20.07;43.70;101851.41;5114151;28;20031;-73
2022/05/13 14:02:36;;;;;;;17.30;14.20;;;;;;;20.49;45.38;101858.16;5133337;28;20050;-73
2022/05/13 14:08:25;;;;;;;22.73;14.43;;;;;;;20.78;45.87;101866.88;5133388;28;20046;-72
2022/05/13 14:14:13;;;;;;;17.35;15.60;;;;;;;20.95;43.72;101859.44;5133435;28;20103;-75
2022/05/13 14:20:28;;;;;;;16.30;14.57;;;;;;;20.89;44.58;101844.97;5133147;28;20074;-77
2022/05/13 14:26:15;;;;;;;14.75;13.25;;;;;;;20.94;42.82;101850.47;5133517;28;20092;-79
2022/05/13 14:28:49;;;;;;;19.80;14.17;;;;;;;20.90;42.39;101853.97;5131962;28;20039;-81
2022/05/13 14:31:21;;;;;;;20.98;14.95;;;;;;;20.75;42.98;101845.66;5114173;28;20284;-82
2022/05/13 14:33:51;;;;;;;15.90;14.07;;;;;;;20.66;43.24;101846.13;5113755;28;20509;-79
2022/05/13 14:39:48;;;;;;;14.23;12.07;;;;;;;20.59;44.74;101840.06;5132464;28;20049;-75
2022/05/13 14:45:42;;;;;;;15.38;11.43;;;;;;;20.76;43.64;101845.38;5132588;27;20046;-78
2022/05/13 14:48:10;;;;;;;15.53;11.07;;;;;;;20.72;42.92;101842.38;5132069;27;20479;-79
2022/05/13 14:54:00;;;;;;;14.10;9.60;;;;;;;20.62;43.16;101844.19;5132614;28;20387;-75
2022/05/13 14:59:56;;;;;;;14.05;8.23;;;;;;;20.66;44.29;101831.72;5132563;28;20154;-75
2022/05/13 15:02:44;;;;;;;13.60;7.32;;;;;;;20.67;44.22;101838.78;5132183;27;20323;-78
2022/05/13 15:05:19;;;;;;;8.98;7.10;;;;;;;20.60;45.04;101830.03;5134845;28;20035;-77
2022/05/13 15:07:44;;;;;;;11.07;7.40;;;;;;;20.58;44.61;101837.63;5135788;28;20031;-79